sensor_id;sensor_type;location;lat;lon;timestamp;temperature;humidity
2623;DHT22;1321;48.690;9.022;2023-07-29T00:00:17;18.90;1.00
2623;DHT22;1321;48.690;9.022;2023-07-29T00:02:46;18.90;1.00
2623;DHT22;1321;48.690;9.022;2023-07-29T00:05:15;18.90;1.00
2623;DHT22;1321;48.690;9.022;2023-07-29T00:07:44;18.90;1.00
2623;DHT22;1321;48.690;9.022;2023-07-29T00:10:12;18.80;1.00
2623;DHT22;1321;48.690;9.022;2023-07-29T00:12:41;18.80;1.00
2623;DHT22;1321;48.690;9.022;2023-07-29T00:15:09;18.80;1.00
2623;DHT22;1321;48.690;9.022;2023-07-29T00:17:38;18.80;1.00
2623;DHT22;1321;48.690;9.022;2023-07-29T00:20:07;18.80;1.00
2623;DHT22;1321;48.690;9.022;2023-07-29T00:22:35;18.80;1.00
2623;DHT22;1321;48.690;9.022;2023-07-29T00:25:06;18.90;1.00
2623;DHT22;1321;48.690;9.022;2023-07-29T00:27:34;18.90;1.00
2623;DHT22;1321;48.690;9.022;2023-07-29T00:30:03;18.90;1.00
2623;DHT22;1321;48.690;9.022;2023-07-29T00:32:31;18.90;1.00
2623;DHT22;1321;48.690;9.022;2023-07-29T00:34:59;18.90;1.00
2623;DHT22;1321;48.690;9.022;2023-07-29T00:37:28;18.90;1.00
2623;DHT22;1321;48.690;9.022;2023-07-29T00:39:56;18.90;1.00
2623;DHT22;1321;48.690;9.022;2023-07-29T00:42:26;18.90;1.00
2623;DHT22;1321;48.690;9.022;2023-07-29T00:44:55;18.90;1.00
2623;DHT22;1321;48.690;9.022;2023-07-29T00:47:25;18.80;1.00
2623;DHT22;1321;48.690;9.022;2023-07-29T00:49:53;18.70;4.50
2623;DHT22;1321;48.690;9.022;2023-07-29T00:52:21;18.80;3.10
2623;DHT22;1321;48.690;9.022;2023-07-29T00:54:50;18.80;1.00
2623;DHT22;1321;48.690;9.022;2023-07-29T00:57:19;18.80;1.00
2623;DHT22;1321;48.690;9.022;2023-07-29T00:59:49;18.90;1.00
2623;DHT22;1321;48.690;9.022;2023-07-29T01:02:18;18.90;1.00
2623;DHT22;1321;48.690;9.022;2023-07-29T01:04:52;18.90;1.00
2623;DHT22;1321;48.690;9.022;2023-07-29T01:07:26;18.90;1.00
2623;DHT22;1321;48.690;9.022;2023-07-29T01:09:59;18.90;1.00
2623;DHT22;1321;48.690;9.022;2023-07-29T01:12:35;18.80;1.00
2623;DHT22;1321;48.690;9.022;2023-07-29T01:15:11;18.80;1.00
2623;DHT22;1321;48.690;9.022;2023-07-29T01:17:44;18.80;1.00
2623;DHT22;1321;48.690;9.022;2023-07-29T01:20:15;18.80;1.00
2623;DHT22;1321;48.690;9.022;2023-07-29T01:22:44;18.80;1.00
2623;DHT22;1321;48.690;9.022;2023-07-29T01:25:13;18.80;1.00
2623;DHT22;1321;48.690;9.022;2023-07-29T01:27:43;18.80;1.00
2623;DHT22;1321;48.690;9.022;2023-07-29T01:30:11;18.80;1.00
2623;DHT22;1321;48.690;9.022;2023-07-29T01:32:54;18.80;1.00
2623;DHT22;1321;48.690;9.022;2023-07-29T01:35:26;18.80;1.00
2623;DHT22;1321;48.690;9.022;2023-07-29T01:38:01;18.80;1.00
2623;DHT22;1321;48.690;9.022;2023-07-29T01:40:33;18.80;1.00
2623;DHT22;1321;48.690;9.022;2023-07-29T01:43:01;18.80;1.00
2623;DHT22;1321;48.690;9.022;2023-07-29T01:45:30;18.80;1.00
2623;DHT22;1321;48.690;9.022;2023-07-29T01:48:02;18.80;1.00
2623;DHT22;1321;48.690;9.022;2023-07-29T01:50:30;18.80;1.00
2623;DHT22;1321;48.690;9.022;2023-07-29T01:52:59;18.80;1.00
2623;DHT22;1321;48.690;9.022;2023-07-29T01:55:27;18.70;1.00
2623;DHT22;1321;48.690;9.022;2023-07-29T01:57:57;18.70;1.00
2623;DHT22;1321;48.690;9.022;2023-07-29T02:00:25;18.70;1.00
2623;DHT22;1321;48.690;9.022;2023-07-29T02:02:53;18.80;1.00
2623;DHT22;1321;48.690;9.022;2023-07-29T02:05:21;18.70;1.00
2623;DHT22;1321;48.690;9.022;2023-07-29T02:07:49;18.80;1.00
2623;DHT22;1321;48.690;9.022;2023-07-29T02:10:17;18.80;1.00
2623;DHT22;1321;48.690;9.022;2023-07-29T02:12:46;18.70;1.00
2623;DHT22;1321;48.690;9.022;2023-07-29T02:15:15;18.70;1.00
2623;DHT22;1321;48.690;9.022;2023-07-29T02:17:43;18.70;1.00
2623;DHT22;1321;48.690;9.022;2023-07-29T02:20:12;18.80;1.00
2623;DHT22;1321;48.690;9.022;2023-07-29T02:22:40;18.70;1.00
2623;DHT22;1321;48.690;9.022;2023-07-29T02:25:08;18.70;1.00
2623;DHT22;1321;48.690;9.022;2023-07-29T02:27:37;18.70;1.00
2623;DHT22;1321;48.690;9.022;2023-07-29T02:30:06;18.80;1.00
2623;DHT22;1321;48.690;9.022;2023-07-29T02:32:37;18.80;1.00
2623;DHT22;1321;48.690;9.022;2023-07-29T02:35:06;18.70;1.00
2623;DHT22;1321;48.690;9.022;2023-07-29T02:37:35;18.80;1.00
2623;DHT22;1321;48.690;9.022;2023-07-29T02:40:03;18.80;1.00
2623;DHT22;1321;48.690;9.022;2023-07-29T02:42:32;18.80;1.00
2623;DHT22;1321;48.690;9.022;2023-07-29T02:45:01;18.80;1.00
2623;DHT22;1321;48.690;9.022;2023-07-29T02:47:29;18.80;1.00
2623;DHT22;1321;48.690;9.022;2023-07-29T02:49:58;18.70;1.00
2623;DHT22;1321;48.690;9.022;2023-07-29T02:52:27;18.70;1.00
2623;DHT22;1321;48.690;9.022;2023-07-29T02:54:55;18.70;1.00
2623;DHT22;1321;48.690;9.022;2023-07-29T02:57:23;18.70;1.00
2623;DHT22;1321;48.690;9.022;2023-07-29T02:59:51;18.70;1.00
2623;DHT22;1321;48.690;9.022;2023-07-29T03:02:19;18.70;1.00
2623;DHT22;1321;48.690;9.022;2023-07-29T03:04:48;18.70;1.00
2623;DHT22;1321;48.690;9.022;2023-07-29T03:07:17;18.70;1.00
2623;DHT22;1321;48.690;9.022;2023-07-29T03:09:47;18.70;1.00
2623;DHT22;1321;48.690;9.022;2023-07-29T03:12:15;18.70;1.00
2623;DHT22;1321;48.690;9.022;2023-07-29T03:14:43;18.70;1.00
2623;DHT22;1321;48.690;9.022;2023-07-29T03:17:11;18.70;1.00
2623;DHT22;1321;48.690;9.022;2023-07-29T03:19:39;18.70;1.00
2623;DHT22;1321;48.690;9.022;2023-07-29T03:22:07;18.70;1.00
2623;DHT22;1321;48.690;9.022;2023-07-29T03:24:37;18.70;1.00
2623;DHT22;1321;48.690;9.022;2023-07-29T03:27:05;18.70;1.00
2623;DHT22;1321;48.690;9.022;2023-07-29T03:29:33;18.70;1.00
2623;DHT22;1321;48.690;9.022;2023-07-29T03:32:02;18.70;1.00
2623;DHT22;1321;48.690;9.022;2023-07-29T03:34:30;18.70;1.00
2623;DHT22;1321;48.690;9.022;2023-07-29T03:36:59;18.70;1.00
2623;DHT22;1321;48.690;9.022;2023-07-29T03:39:27;18.60;1.00
2623;DHT22;1321;48.690;9.022;2023-07-29T03:41:57;18.60;1.00
2623;DHT22;1321;48.690;9.022;2023-07-29T03:44:25;18.70;1.00
2623;DHT22;1321;48.690;9.022;2023-07-29T03:46:53;18.70;1.00
2623;DHT22;1321;48.690;9.022;2023-07-29T03:49:21;18.70;1.00
2623;DHT22;1321;48.690;9.022;2023-07-29T03:51:50;18.70;1.00
2623;DHT22;1321;48.690;9.022;2023-07-29T03:54:18;18.70;1.00
2623;DHT22;1321;48.690;9.022;2023-07-29T03:56:46;18.70;1.00
2623;DHT22;1321;48.690;9.022;2023-07-29T03:59:15;18.70;1.00
2623;DHT22;1321;48.690;9.022;2023-07-29T04:01:43;18.70;1.00
2623;DHT22;1321;48.690;9.022;2023-07-29T04:04:11;18.70;1.00
2623;DHT22;1321;48.690;9.022;2023-07-29T04:06:40;18.70;1.00
2623;DHT22;1321;48.690;9.022;2023-07-29T04:09:08;18.70;1.00
2623;DHT22;1321;48.690;9.022;2023-07-29T04:11:37;18.70;1.00
2623;DHT22;1321;48.690;9.022;2023-07-29T04:14:05;18.70;1.00
2623;DHT22;1321;48.690;9.022;2023-07-29T04:16:34;18.70;1.00
2623;DHT22;1321;48.690;9.022;2023-07-29T04:19:03;18.80;1.00
2623;DHT22;1321;48.690;9.022;2023-07-29T04:21:31;18.70;1.00
2623;DHT22;1321;48.690;9.022;2023-07-29T04:23:59;18.70;1.00
2623;DHT22;1321;48.690;9.022;2023-07-29T04:26:28;18.70;1.00
2623;DHT22;1321;48.690;9.022;2023-07-29T04:28:56;18.80;3.00
2623;DHT22;1321;48.690;9.022;2023-07-29T04:31:25;18.70;3.70
2623;DHT22;1321;48.690;9.022;2023-07-29T04:33:54;18.70;3.20
2623;DHT22;1321;48.690;9.022;2023-07-29T04:36:23;18.70;9.50
2623;DHT22;1321;48.690;9.022;2023-07-29T04:38:51;18.70;6.30
2623;DHT22;1321;48.690;9.022;2023-07-29T04:41:19;18.70;5.10
2623;DHT22;1321;48.690;9.022;2023-07-29T04:43:47;18.70;11.90
2623;DHT22;1321;48.690;9.022;2023-07-29T04:46:16;18.70;9.50
2623;DHT22;1321;48.690;9.022;2023-07-29T04:48:44;18.70;11.60
2623;DHT22;1321;48.690;9.022;2023-07-29T04:51:14;18.70;20.00
2623;DHT22;1321;48.690;9.022;2023-07-29T04:53:42;18.70;19.10
2623;DHT22;1321;48.690;9.022;2023-07-29T04:56:10;18.70;18.30
2623;DHT22;1321;48.690;9.022;2023-07-29T04:58:41;18.70;22.00
2623;DHT22;1321;48.690;9.022;2023-07-29T05:01:09;18.60;21.90
2623;DHT22;1321;48.690;9.022;2023-07-29T05:03:37;18.70;26.00
2623;DHT22;1321;48.690;9.022;2023-07-29T05:06:07;18.60;30.50
2623;DHT22;1321;48.690;9.022;2023-07-29T05:08:36;18.60;36.80
2623;DHT22;1321;48.690;9.022;2023-07-29T05:11:04;18.60;39.30
2623;DHT22;1321;48.690;9.022;2023-07-29T05:13:33;18.60;42.20
2623;DHT22;1321;48.690;9.022;2023-07-29T05:16:01;18.70;38.90
2623;DHT22;1321;48.690;9.022;2023-07-29T05:18:29;18.70;41.70
2623;DHT22;1321;48.690;9.022;2023-07-29T05:20:57;18.60;47.50
2623;DHT22;1321;48.690;9.022;2023-07-29T05:23:25;18.60;48.80
2623;DHT22;1321;48.690;9.022;2023-07-29T05:25:55;18.60;54.40
2623;DHT22;1321;48.690;9.022;2023-07-29T05:28:23;18.60;58.80
2623;DHT22;1321;48.690;9.022;2023-07-29T05:30:51;18.60;59.40
2623;DHT22;1321;48.690;9.022;2023-07-29T05:33:20;18.70;68.90
2623;DHT22;1321;48.690;9.022;2023-07-29T05:35:48;18.70;75.90
2623;DHT22;1321;48.690;9.022;2023-07-29T05:38:16;18.70;78.50
2623;DHT22;1321;48.690;9.022;2023-07-29T05:40:45;18.80;75.20
2623;DHT22;1321;48.690;9.022;2023-07-29T05:43:14;18.80;75.90
2623;DHT22;1321;48.690;9.022;2023-07-29T05:45:42;18.80;78.60
2623;DHT22;1321;48.690;9.022;2023-07-29T05:48:11;18.80;83.70
2623;DHT22;1321;48.690;9.022;2023-07-29T05:50:39;18.80;87.30
2623;DHT22;1321;48.690;9.022;2023-07-29T05:53:07;18.80;91.90
2623;DHT22;1321;48.690;9.022;2023-07-29T05:55:35;18.80;90.70
2623;DHT22;1321;48.690;9.022;2023-07-29T05:58:03;18.90;92.90
2623;DHT22;1321;48.690;9.022;2023-07-29T06:00:33;18.90;93.40
2623;DHT22;1321;48.690;9.022;2023-07-29T06:03:01;19.00;92.40
2623;DHT22;1321;48.690;9.022;2023-07-29T06:05:29;19.00;89.00
2623;DHT22;1321;48.690;9.022;2023-07-29T06:07:58;19.00;89.20
2623;DHT22;1321;48.690;9.022;2023-07-29T06:10:26;19.00;90.30
2623;DHT22;1321;48.690;9.022;2023-07-29T06:12:54;18.90;93.40
2623;DHT22;1321;48.690;9.022;2023-07-29T06:15:22;19.00;96.00
2623;DHT22;1321;48.690;9.022;2023-07-29T06:17:52;19.00;99.20
2623;DHT22;1321;48.690;9.022;2023-07-29T06:20:23;19.00;98.40
2623;DHT22;1321;48.690;9.022;2023-07-29T06:22:51;19.10;99.40
2623;DHT22;1321;48.690;9.022;2023-07-29T06:25:19;19.10;95.60
2623;DHT22;1321;48.690;9.022;2023-07-29T06:27:49;19.20;94.70
2623;DHT22;1321;48.690;9.022;2023-07-29T06:30:17;19.20;92.70
2623;DHT22;1321;48.690;9.022;2023-07-29T06:32:46;19.20;91.80
2623;DHT22;1321;48.690;9.022;2023-07-29T06:35:15;19.20;91.40
2623;DHT22;1321;48.690;9.022;2023-07-29T06:37:44;19.20;84.60
2623;DHT22;1321;48.690;9.022;2023-07-29T06:40:12;19.10;85.30
2623;DHT22;1321;48.690;9.022;2023-07-29T06:42:40;19.10;84.90
2623;DHT22;1321;48.690;9.022;2023-07-29T06:45:09;19.10;76.90
2623;DHT22;1321;48.690;9.022;2023-07-29T06:47:38;19.10;84.00
2623;DHT22;1321;48.690;9.022;2023-07-29T06:50:08;19.10;81.10
2623;DHT22;1321;48.690;9.022;2023-07-29T06:52:37;19.10;89.10
2623;DHT22;1321;48.690;9.022;2023-07-29T06:55:07;19.10;87.70
2623;DHT22;1321;48.690;9.022;2023-07-29T06:57:35;19.20;77.90
2623;DHT22;1321;48.690;9.022;2023-07-29T07:00:05;19.20;77.40
2623;DHT22;1321;48.690;9.022;2023-07-29T07:02:34;19.30;69.50
2623;DHT22;1321;48.690;9.022;2023-07-29T07:05:03;19.20;90.00
2623;DHT22;1321;48.690;9.022;2023-07-29T07:07:31;19.10;92.60
2623;DHT22;1321;48.690;9.022;2023-07-29T07:10:01;19.10;92.40
2623;DHT22;1321;48.690;9.022;2023-07-29T07:12:29;19.10;94.10
2623;DHT22;1321;48.690;9.022;2023-07-29T07:14:57;19.10;94.90
2623;DHT22;1321;48.690;9.022;2023-07-29T07:17:25;19.10;92.80
2623;DHT22;1321;48.690;9.022;2023-07-29T07:19:53;19.00;92.50
2623;DHT22;1321;48.690;9.022;2023-07-29T07:22:21;19.00;90.20
2623;DHT22;1321;48.690;9.022;2023-07-29T07:24:50;18.90;90.80
2623;DHT22;1321;48.690;9.022;2023-07-29T07:27:20;19.00;84.00
2623;DHT22;1321;48.690;9.022;2023-07-29T07:29:48;19.00;84.00
2623;DHT22;1321;48.690;9.022;2023-07-29T07:32:16;19.00;79.50
2623;DHT22;1321;48.690;9.022;2023-07-29T07:34:44;19.00;87.00
2623;DHT22;1321;48.690;9.022;2023-07-29T07:37:13;19.10;88.90
2623;DHT22;1321;48.690;9.022;2023-07-29T07:39:41;19.20;89.50
2623;DHT22;1321;48.690;9.022;2023-07-29T07:42:09;19.20;84.10
2623;DHT22;1321;48.690;9.022;2023-07-29T07:44:39;19.20;90.00
2623;DHT22;1321;48.690;9.022;2023-07-29T07:47:07;19.20;82.20
2623;DHT22;1321;48.690;9.022;2023-07-29T07:49:35;19.20;91.10
2623;DHT22;1321;48.690;9.022;2023-07-29T07:52:03;19.30;89.50
2623;DHT22;1321;48.690;9.022;2023-07-29T07:54:31;19.30;92.40
2623;DHT22;1321;48.690;9.022;2023-07-29T07:57:00;19.30;84.20
2623;DHT22;1321;48.690;9.022;2023-07-29T07:59:28;19.40;82.50
2623;DHT22;1321;48.690;9.022;2023-07-29T08:01:58;19.40;65.10
2623;DHT22;1321;48.690;9.022;2023-07-29T08:04:26;19.40;52.40
2623;DHT22;1321;48.690;9.022;2023-07-29T08:06:54;19.40;58.50
2623;DHT22;1321;48.690;9.022;2023-07-29T08:09:22;19.50;50.90
2623;DHT22;1321;48.690;9.022;2023-07-29T08:11:50;19.50;53.80
2623;DHT22;1321;48.690;9.022;2023-07-29T08:14:18;19.60;37.40
2623;DHT22;1321;48.690;9.022;2023-07-29T08:16:47;19.60;48.50
2623;DHT22;1321;48.690;9.022;2023-07-29T08:19:16;19.60;33.00
2623;DHT22;1321;48.690;9.022;2023-07-29T08:21:48;19.60;35.70
2623;DHT22;1321;48.690;9.022;2023-07-29T08:24:16;19.70;42.20
2623;DHT22;1321;48.690;9.022;2023-07-29T08:26:44;19.80;36.60
2623;DHT22;1321;48.690;9.022;2023-07-29T08:32:42;20.00;22.90
2623;DHT22;1321;48.690;9.022;2023-07-29T08:39:47;20.20;28.20
2623;DHT22;1321;48.690;9.022;2023-07-29T08:42:16;20.30;8.20
2623;DHT22;1321;48.690;9.022;2023-07-29T08:44:49;20.30;18.00
2623;DHT22;1321;48.690;9.022;2023-07-29T08:47:17;20.40;22.90
2623;DHT22;1321;48.690;9.022;2023-07-29T08:49:46;20.40;11.00
2623;DHT22;1321;48.690;9.022;2023-07-29T08:52:15;20.40;22.70
2623;DHT22;1321;48.690;9.022;2023-07-29T08:54:46;20.30;2.40
2623;DHT22;1321;48.690;9.022;2023-07-29T08:57:15;20.40;7.40
2623;DHT22;1321;48.690;9.022;2023-07-29T08:59:43;20.50;12.90
2623;DHT22;1321;48.690;9.022;2023-07-29T09:02:12;20.40;9.80
2623;DHT22;1321;48.690;9.022;2023-07-29T09:04:40;20.50;18.00
2623;DHT22;1321;48.690;9.022;2023-07-29T09:07:10;20.50;7.40
2623;DHT22;1321;48.690;9.022;2023-07-29T09:09:38;20.50;7.20
2623;DHT22;1321;48.690;9.022;2023-07-29T09:12:08;20.50;1.60
2623;DHT22;1321;48.690;9.022;2023-07-29T09:14:38;20.60;2.60
2623;DHT22;1321;48.690;9.022;2023-07-29T09:17:07;20.70;1.00
2623;DHT22;1321;48.690;9.022;2023-07-29T09:19:39;20.80;1.00
2623;DHT22;1321;48.690;9.022;2023-07-29T09:22:17;20.80;1.00
2623;DHT22;1321;48.690;9.022;2023-07-29T09:24:46;21.00;1.00
2623;DHT22;1321;48.690;9.022;2023-07-29T09:27:24;21.00;1.00
2623;DHT22;1321;48.690;9.022;2023-07-29T09:29:55;21.10;1.00
2623;DHT22;1321;48.690;9.022;2023-07-29T09:32:24;21.10;1.00
2623;DHT22;1321;48.690;9.022;2023-07-29T09:34:53;21.20;1.00
2623;DHT22;1321;48.690;9.022;2023-07-29T09:37:22;21.20;1.00
2623;DHT22;1321;48.690;9.022;2023-07-29T09:39:51;21.20;1.00
2623;DHT22;1321;48.690;9.022;2023-07-29T09:42:20;21.20;1.00
2623;DHT22;1321;48.690;9.022;2023-07-29T09:44:50;21.30;1.00
2623;DHT22;1321;48.690;9.022;2023-07-29T09:47:21;21.30;1.00
2623;DHT22;1321;48.690;9.022;2023-07-29T09:49:50;21.40;1.00
2623;DHT22;1321;48.690;9.022;2023-07-29T09:52:19;21.50;1.00
2623;DHT22;1321;48.690;9.022;2023-07-29T09:54:48;21.50;1.00
2623;DHT22;1321;48.690;9.022;2023-07-29T09:57:18;21.50;1.00
2623;DHT22;1321;48.690;9.022;2023-07-29T09:59:55;21.60;1.00
2623;DHT22;1321;48.690;9.022;2023-07-29T10:05:21;21.90;99.90
2623;DHT22;1321;48.690;9.022;2023-07-29T10:08:07;22.00;1.00
2623;DHT22;1321;48.690;9.022;2023-07-29T10:10:36;22.00;99.90
2623;DHT22;1321;48.690;9.022;2023-07-29T10:13:31;22.10;81.30
2623;DHT22;1321;48.690;9.022;2023-07-29T10:16:40;22.30;99.90
2623;DHT22;1321;48.690;9.022;2023-07-29T10:20:06;22.40;99.90
2623;DHT22;1321;48.690;9.022;2023-07-29T10:26:24;22.40;1.00
2623;DHT22;1321;48.690;9.022;2023-07-29T10:29:41;22.40;1.00
2623;DHT22;1321;48.690;9.022;2023-07-29T10:41:04;22.60;99.90
2623;DHT22;1321;48.690;9.022;2023-07-29T10:43:34;22.80;1.00
2623;DHT22;1321;48.690;9.022;2023-07-29T10:46:15;22.80;1.00
2623;DHT22;1321;48.690;9.022;2023-07-29T10:48:52;22.80;73.40
2623;DHT22;1321;48.690;9.022;2023-07-29T10:51:31;22.70;99.90
2623;DHT22;1321;48.690;9.022;2023-07-29T10:54:03;22.80;99.90
2623;DHT22;1321;48.690;9.022;2023-07-29T10:56:40;22.90;99.90
2623;DHT22;1321;48.690;9.022;2023-07-29T10:59:31;23.00;99.90
2623;DHT22;1321;48.690;9.022;2023-07-29T11:02:01;23.10;99.90
2623;DHT22;1321;48.690;9.022;2023-07-29T11:04:30;23.10;99.90
2623;DHT22;1321;48.690;9.022;2023-07-29T11:07:21;23.10;99.90
2623;DHT22;1321;48.690;9.022;2023-07-29T11:10:03;23.20;99.90
2623;DHT22;1321;48.690;9.022;2023-07-29T11:12:37;23.20;99.90
2623;DHT22;1321;48.690;9.022;2023-07-29T11:15:22;23.20;19.70
2623;DHT22;1321;48.690;9.022;2023-07-29T11:17:54;23.10;99.90
2623;DHT22;1321;48.690;9.022;2023-07-29T11:20:27;23.20;62.70
2623;DHT22;1321;48.690;9.022;2023-07-29T11:23:02;23.30;1.00
2623;DHT22;1321;48.690;9.022;2023-07-29T11:25:32;23.30;3.10
2623;DHT22;1321;48.690;9.022;2023-07-29T11:28:04;23.30;29.50
2623;DHT22;1321;48.690;9.022;2023-07-29T11:30:46;23.30;1.00
2623;DHT22;1321;48.690;9.022;2023-07-29T11:33:24;23.30;1.00
2623;DHT22;1321;48.690;9.022;2023-07-29T11:35:53;23.30;1.00
2623;DHT22;1321;48.690;9.022;2023-07-29T11:38:23;23.30;1.00
2623;DHT22;1321;48.690;9.022;2023-07-29T11:41:05;23.30;1.00
2623;DHT22;1321;48.690;9.022;2023-07-29T11:43:43;23.40;1.00
2623;DHT22;1321;48.690;9.022;2023-07-29T11:46:12;23.50;1.00
2623;DHT22;1321;48.690;9.022;2023-07-29T11:48:48;23.50;99.90
2623;DHT22;1321;48.690;9.022;2023-07-29T11:51:16;23.50;99.90
2623;DHT22;1321;48.690;9.022;2023-07-29T11:53:46;23.50;99.90
2623;DHT22;1321;48.690;9.022;2023-07-29T11:56:20;23.50;99.90
2623;DHT22;1321;48.690;9.022;2023-07-29T11:58:49;23.50;99.90
2623;DHT22;1321;48.690;9.022;2023-07-29T12:01:21;23.60;99.90
2623;DHT22;1321;48.690;9.022;2023-07-29T12:03:50;23.60;99.90
2623;DHT22;1321;48.690;9.022;2023-07-29T12:06:24;23.60;99.90
2623;DHT22;1321;48.690;9.022;2023-07-29T12:08:55;23.60;99.90
2623;DHT22;1321;48.690;9.022;2023-07-29T12:11:26;23.60;99.90
2623;DHT22;1321;48.690;9.022;2023-07-29T12:13:56;23.60;99.90
2623;DHT22;1321;48.690;9.022;2023-07-29T12:16:24;23.50;99.90
2623;DHT22;1321;48.690;9.022;2023-07-29T12:18:53;23.60;99.90
2623;DHT22;1321;48.690;9.022;2023-07-29T12:21:21;23.50;99.90
2623;DHT22;1321;48.690;9.022;2023-07-29T12:23:51;23.50;99.90
2623;DHT22;1321;48.690;9.022;2023-07-29T12:26:19;23.50;99.90
2623;DHT22;1321;48.690;9.022;2023-07-29T12:28:48;23.60;1.00
2623;DHT22;1321;48.690;9.022;2023-07-29T12:31:44;23.50;99.90
2623;DHT22;1321;48.690;9.022;2023-07-29T12:34:17;23.60;1.00
2623;DHT22;1321;48.690;9.022;2023-07-29T12:36:50;23.70;1.00
2623;DHT22;1321;48.690;9.022;2023-07-29T12:39:23;23.70;1.00
2623;DHT22;1321;48.690;9.022;2023-07-29T12:41:54;23.70;1.00
2623;DHT22;1321;48.690;9.022;2023-07-29T12:44:30;23.80;1.00
2623;DHT22;1321;48.690;9.022;2023-07-29T12:47:05;23.80;1.00
2623;DHT22;1321;48.690;9.022;2023-07-29T12:49:48;23.90;1.00
2623;DHT22;1321;48.690;9.022;2023-07-29T12:52:39;23.90;1.00
2623;DHT22;1321;48.690;9.022;2023-07-29T12:55:10;23.90;1.00
2623;DHT22;1321;48.690;9.022;2023-07-29T12:57:44;23.80;1.00
2623;DHT22;1321;48.690;9.022;2023-07-29T13:00:15;23.90;1.00
2623;DHT22;1321;48.690;9.022;2023-07-29T13:02:45;24.00;1.00
2623;DHT22;1321;48.690;9.022;2023-07-29T13:05:19;23.90;99.90
2623;DHT22;1321;48.690;9.022;2023-07-29T13:07:48;24.00;99.90
2623;DHT22;1321;48.690;9.022;2023-07-29T13:10:33;24.00;99.90
2623;DHT22;1321;48.690;9.022;2023-07-29T13:13:08;24.00;99.90
2623;DHT22;1321;48.690;9.022;2023-07-29T13:15:36;24.10;1.00
2623;DHT22;1321;48.690;9.022;2023-07-29T13:18:06;24.10;1.00
2623;DHT22;1321;48.690;9.022;2023-07-29T13:20:34;24.00;99.90
2623;DHT22;1321;48.690;9.022;2023-07-29T13:23:04;24.00;99.90
2623;DHT22;1321;48.690;9.022;2023-07-29T13:25:36;24.00;99.90
2623;DHT22;1321;48.690;9.022;2023-07-29T13:28:15;24.00;99.90
2623;DHT22;1321;48.690;9.022;2023-07-29T13:30:46;24.00;99.90
2623;DHT22;1321;48.690;9.022;2023-07-29T13:33:16;24.00;99.90
2623;DHT22;1321;48.690;9.022;2023-07-29T13:35:45;23.90;99.90
2623;DHT22;1321;48.690;9.022;2023-07-29T13:38:16;23.90;99.90
2623;DHT22;1321;48.690;9.022;2023-07-29T13:40:52;23.90;99.90
2623;DHT22;1321;48.690;9.022;2023-07-29T13:43:23;23.90;99.90
2623;DHT22;1321;48.690;9.022;2023-07-29T13:46:12;23.90;99.90
2623;DHT22;1321;48.690;9.022;2023-07-29T13:48:42;23.90;99.90
2623;DHT22;1321;48.690;9.022;2023-07-29T13:51:13;23.90;99.90
2623;DHT22;1321;48.690;9.022;2023-07-29T13:53:41;23.90;99.90
2623;DHT22;1321;48.690;9.022;2023-07-29T13:56:09;23.90;99.90
2623;DHT22;1321;48.690;9.022;2023-07-29T13:58:38;23.80;99.90
2623;DHT22;1321;48.690;9.022;2023-07-29T14:01:06;23.80;99.90
2623;DHT22;1321;48.690;9.022;2023-07-29T14:03:35;23.90;99.90
2623;DHT22;1321;48.690;9.022;2023-07-29T14:06:04;23.90;99.90
2623;DHT22;1321;48.690;9.022;2023-07-29T14:08:32;23.80;99.90
2623;DHT22;1321;48.690;9.022;2023-07-29T14:11:02;23.80;99.90
2623;DHT22;1321;48.690;9.022;2023-07-29T14:13:30;23.80;99.90
2623;DHT22;1321;48.690;9.022;2023-07-29T14:16:00;23.80;99.90
2623;DHT22;1321;48.690;9.022;2023-07-29T14:18:29;23.80;99.90
2623;DHT22;1321;48.690;9.022;2023-07-29T14:20:57;23.70;99.90
2623;DHT22;1321;48.690;9.022;2023-07-29T14:23:35;23.70;99.90
2623;DHT22;1321;48.690;9.022;2023-07-29T14:26:15;23.80;99.90
2623;DHT22;1321;48.690;9.022;2023-07-29T14:28:53;23.80;99.90
2623;DHT22;1321;48.690;9.022;2023-07-29T14:31:27;23.80;99.90
2623;DHT22;1321;48.690;9.022;2023-07-29T14:33:59;23.80;99.90
2623;DHT22;1321;48.690;9.022;2023-07-29T14:36:27;23.90;99.90
2623;DHT22;1321;48.690;9.022;2023-07-29T14:38:57;23.80;99.90
2623;DHT22;1321;48.690;9.022;2023-07-29T14:41:25;23.80;99.90
2623;DHT22;1321;48.690;9.022;2023-07-29T14:43:53;23.70;99.90
2623;DHT22;1321;48.690;9.022;2023-07-29T14:46:22;23.80;99.90
2623;DHT22;1321;48.690;9.022;2023-07-29T14:48:50;23.80;99.90
2623;DHT22;1321;48.690;9.022;2023-07-29T14:51:24;23.80;99.90
2623;DHT22;1321;48.690;9.022;2023-07-29T14:53:52;23.70;99.90
2623;DHT22;1321;48.690;9.022;2023-07-29T14:56:22;23.70;99.90
2623;DHT22;1321;48.690;9.022;2023-07-29T14:58:50;23.80;99.90
2623;DHT22;1321;48.690;9.022;2023-07-29T15:01:18;23.80;99.90
2623;DHT22;1321;48.690;9.022;2023-07-29T15:03:48;23.80;99.90
2623;DHT22;1321;48.690;9.022;2023-07-29T15:06:17;23.80;99.90
2623;DHT22;1321;48.690;9.022;2023-07-29T15:08:45;23.80;99.90
2623;DHT22;1321;48.690;9.022;2023-07-29T15:11:24;23.80;99.90
2623;DHT22;1321;48.690;9.022;2023-07-29T15:13:53;23.80;99.90
2623;DHT22;1321;48.690;9.022;2023-07-29T15:16:23;23.80;99.90
2623;DHT22;1321;48.690;9.022;2023-07-29T15:18:52;23.80;99.90
2623;DHT22;1321;48.690;9.022;2023-07-29T15:28:45;23.70;99.90
2623;DHT22;1321;48.690;9.022;2023-07-29T15:31:13;23.80;99.90
2623;DHT22;1321;48.690;9.022;2023-07-29T15:33:41;23.80;99.90
2623;DHT22;1321;48.690;9.022;2023-07-29T15:36:10;23.80;99.90
2623;DHT22;1321;48.690;9.022;2023-07-29T15:39:37;23.80;99.90
2623;DHT22;1321;48.690;9.022;2023-07-29T15:42:08;23.80;99.90
2623;DHT22;1321;48.690;9.022;2023-07-29T15:44:43;23.90;99.90
2623;DHT22;1321;48.690;9.022;2023-07-29T15:47:11;23.90;99.90
2623;DHT22;1321;48.690;9.022;2023-07-29T15:49:42;23.90;99.90
2623;DHT22;1321;48.690;9.022;2023-07-29T15:52:10;23.90;99.90
2623;DHT22;1321;48.690;9.022;2023-07-29T15:54:41;23.90;99.90
2623;DHT22;1321;48.690;9.022;2023-07-29T15:57:10;23.90;99.90
2623;DHT22;1321;48.690;9.022;2023-07-29T15:59:40;23.90;99.90
2623;DHT22;1321;48.690;9.022;2023-07-29T16:02:10;23.90;99.90
2623;DHT22;1321;48.690;9.022;2023-07-29T16:04:59;23.90;99.90
2623;DHT22;1321;48.690;9.022;2023-07-29T16:07:34;24.00;99.90
2623;DHT22;1321;48.690;9.022;2023-07-29T16:10:10;23.90;99.90
2623;DHT22;1321;48.690;9.022;2023-07-29T16:12:40;24.00;99.90
2623;DHT22;1321;48.690;9.022;2023-07-29T16:15:14;24.00;99.90
2623;DHT22;1321;48.690;9.022;2023-07-29T16:17:42;24.00;99.90
2623;DHT22;1321;48.690;9.022;2023-07-29T16:20:11;24.10;99.90
2623;DHT22;1321;48.690;9.022;2023-07-29T16:23:07;24.10;99.90
2623;DHT22;1321;48.690;9.022;2023-07-29T16:25:38;24.10;99.90
2623;DHT22;1321;48.690;9.022;2023-07-29T16:28:10;24.20;99.90
2623;DHT22;1321;48.690;9.022;2023-07-29T16:31:12;24.10;99.90
2623;DHT22;1321;48.690;9.022;2023-07-29T16:33:41;24.20;99.90
2623;DHT22;1321;48.690;9.022;2023-07-29T16:36:09;24.10;99.90
2623;DHT22;1321;48.690;9.022;2023-07-29T16:38:40;24.10;99.90
2623;DHT22;1321;48.690;9.022;2023-07-29T16:41:08;24.10;99.90
2623;DHT22;1321;48.690;9.022;2023-07-29T16:43:56;24.00;99.90
2623;DHT22;1321;48.690;9.022;2023-07-29T16:46:26;24.00;99.90
2623;DHT22;1321;48.690;9.022;2023-07-29T16:48:54;23.90;99.90
2623;DHT22;1321;48.690;9.022;2023-07-29T16:51:22;23.90;99.90
2623;DHT22;1321;48.690;9.022;2023-07-29T16:53:51;23.80;99.90
2623;DHT22;1321;48.690;9.022;2023-07-29T16:56:20;23.80;99.90
2623;DHT22;1321;48.690;9.022;2023-07-29T16:58:48;23.80;99.90
2623;DHT22;1321;48.690;9.022;2023-07-29T17:01:16;23.70;99.90
2623;DHT22;1321;48.690;9.022;2023-07-29T17:03:46;23.70;99.90